Woodside, NY (11377)

10:05 AM EDT on April 21, 2015 (GMT -0400)
Jackson Heights, New York | | Change Station
CLOSE
Current Station
Personal Weather Station
Location: Jackson Heights, NY
Elevation: 89 ft
Nearby Weather Stations

Elev 89 ft 40.75 °N, 73.88 °W | Updated 6 seconds ago

Mostly Cloudy
Mostly Cloudy
56.3 °F
Feels Like 56.3 °F
N
17.3
Wind Variable Wind from NW
Gusts 17.3 mph

Today
High -- | Low -- °F
--% Chance of Precip.
Yesterday
High -- | Low -- °F
Precip. -- in
6:08 AM 7:41 PM
Waxing Crescent, 10% visible
Pressure 29.65 in
Visibility 10.0 miles
Clouds Few 2000 ft
Mostly Cloudy 2600 ft
Mostly Cloudy 4000 ft
Mostly Cloudy 13000 ft
Dew Point 52 °F
Humidity 84%
Rainfall 0.23 in
Snow Depth Not available.
UV 3 out of 12
Pollen 8.70 out of 12
Air Quality Not available.
Flu Activity Widespread
METAR KLGA 211351Z 27009KT 10SM FEW020 BKN026 BKN040 BKN130 14/11 A2965 RMK AO2 SLP041 RAE27 P0007 T01440106 $

More Conditions Fewer Conditions

Pressure 29.65 in
Visibility 10.0 miles
Clouds Few 2000 ft
Mostly Cloudy 2600 ft
Mostly Cloudy 4000 ft
Mostly Cloudy 13000 ft
Dew Point 52 °F
Humidity 84%
Rainfall 0.23 in
Snow Depth Not available.
UV 3 out of 12
Pollen 8.70 out of 12
Air Quality Not available.
Flu Activity Widespread
METAR KLGA 211351Z 27009KT 10SM FEW020 BKN026 BKN040 BKN130 14/11 A2965 RMK AO2 SLP041 RAE27 P0007 T01440106 $

More Conditions Fewer Conditions

Nowcast | as of 9:04 am EDT on April 21, 2015

At 903 am EDT...Doppler radar indicated a line of showers...along a line extending from Riverdale to Elmont moving northeast at 65 mph. Locations impacted include... New York...Oyster Bay...Huntington...Yonkers...Paterson... Bridgeport...New Haven...Stamford...Norwalk...Danbury...New Rochelle...Passaic...White Plains...Wayne...Hackensack...Shelton... Valley stream...Naugatuck...Port Chester and Glen Cove. A brief period of moderate to heavy rainfall can be expected with this activity.

×

10-Day Weather Forecast

Almanac

Astronomy

Apr. 21, 2015 Rise Set
Actual Time
Civil Twilight
Nautical Twilight
Astronomical Twilight
Moon
Length of Visible Light
Length of Day
Tomorrow will be .
, % of the Moon is Illuminated

Today's Extremes

State Highs State Lows

Community

WunderPhotos

Upload Photos

1,815,393 photos uploaded!

WunderBlogs® & News

Nearby

Air Quality

  Air Quality AQ Index Pollutant
Not available.

Snow Depth

Station Depth Elevation

Earthquake Activity

City Distance Mag. Time & Date
Minimum magnitude displayed is 2.5.

Coastal Water Temperatures

Place Temperature

Stations

Nearby Weather Stations

Station Location Temp. Windchill Dew Point Humidity Wind Precip. Elev Updated Type